Observations for CRANFIELD, United Kingdom (EGTC)

EGTC 111620Z 12009KT 9999 FEW030 07/05 Q1022
EGTC 111550Z 11004KT 9999 FEW030 07/05 Q1022
EGTC 111520Z 12004KT 9999 FEW031 07/05 Q1023
EGTC 111450Z 13006KT 9999 FEW030 08/05 Q1023
EGTC 111420Z 13006KT 9999 SCT032 08/05 Q1023
EGTC 111350Z 14006KT CAVOK 08/05 Q1023  
EGTC 111320Z 13005KT CAVOK 09/05 Q1024  
EGTC 111250Z VRB04KT CAVOK 09/05 Q1024  
EGTC 111220Z 13004KT CAVOK 08/06 Q1024  
EGTC 111150Z 16004KT CAVOK 08/05 Q1024  
EGTC 111120Z 16004KT CAVOK 07/05 Q1024  
EGTC 111050Z 14003KT 110V170 CAVOK 06/06 Q1025  
EGTC 111020Z 18004KT 130V200 CAVOK 06/05 Q1025  
EGTC 110950Z 16002KT CAVOK 05/05 Q1025  
EGTC 110920Z 14003KT CAVOK 03/03 Q1025  
EGTC 110850Z 00000KT CAVOK 02/02 Q1025  
EGTC 110820Z 17003KT 9999 FEW026 02/02 Q1025
EGTC 110750Z 18004KT 9999 FEW027 02/02 Q1025